sensor_id;sensor_type;location;lat;lon;timestamp;pressure;altitude;pressure_sealevel;temperature;humidity
62374;BME280;48409;49.030;1.820;2023-02-15T00:01:35;101950.34;;;3.84;63.46
62374;BME280;48409;49.030;1.820;2023-02-15T00:04:01;101944.25;;;3.82;63.32
62374;BME280;48409;49.030;1.820;2023-02-15T00:06:27;101946.84;;;3.81;63.34
62374;BME280;48409;49.030;1.820;2023-02-15T00:08:53;101944.22;;;3.79;63.50
62374;BME280;48409;49.030;1.820;2023-02-15T00:11:18;101940.75;;;3.77;63.45
62374;BME280;48409;49.030;1.820;2023-02-15T00:14:03;101939.03;;;3.74;63.47
62374;BME280;48409;49.030;1.820;2023-02-15T00:16:28;101933.81;;;3.73;63.34
62374;BME280;48409;49.030;1.820;2023-02-15T00:18:54;101933.78;;;3.70;63.33
62374;BME280;48409;49.030;1.820;2023-02-15T00:21:19;101934.66;;;3.69;63.27
62374;BME280;48409;49.030;1.820;2023-02-15T00:23:44;101929.44;;;3.67;63.43
62374;BME280;48409;49.030;1.820;2023-02-15T00:26:10;101925.97;;;3.65;63.31
62374;BME280;48409;49.030;1.820;2023-02-15T00:28:36;101927.69;;;3.61;63.30
62374;BME280;48409;49.030;1.820;2023-02-15T00:31:05;101914.66;;;3.61;63.38
62374;BME280;48409;49.030;1.820;2023-02-15T00:33:30;101919.00;;;3.59;63.45
62374;BME280;48409;49.030;1.820;2023-02-15T00:35:59;101913.78;;;3.58;63.37
62374;BME280;48409;49.030;1.820;2023-02-15T00:38:26;101912.94;;;3.57;63.14
62374;BME280;48409;49.030;1.820;2023-02-15T00:40:55;101906.81;;;3.55;63.52
62374;BME280;48409;49.030;1.820;2023-02-15T00:43:21;101913.75;;;3.55;63.37
62374;BME280;48409;49.030;1.820;2023-02-15T00:45:46;101905.97;;;3.53;63.23
62374;BME280;48409;49.030;1.820;2023-02-15T00:48:11;101907.69;;;3.51;63.23
62374;BME280;48409;49.030;1.820;2023-02-15T00:50:36;101907.66;;;3.48;63.20
62374;BME280;48409;49.030;1.820;2023-02-15T00:53:02;101908.53;;;3.47;63.34
62374;BME280;48409;49.030;1.820;2023-02-15T00:55:27;101909.41;;;3.46;63.30
62374;BME280;48409;49.030;1.820;2023-02-15T00:57:52;101903.31;;;3.44;63.37
62374;BME280;48409;49.030;1.820;2023-02-15T01:00:18;101898.97;;;3.41;63.52
62374;BME280;48409;49.030;1.820;2023-02-15T01:02:43;101905.91;;;3.41;63.38
62374;BME280;48409;49.030;1.820;2023-02-15T01:05:08;101897.22;;;3.38;63.43
62374;BME280;48409;49.030;1.820;2023-02-15T01:07:33;101912.84;;;3.38;63.40
62374;BME280;48409;49.030;1.820;2023-02-15T01:09:59;101894.63;;;3.35;63.55
62374;BME280;48409;49.030;1.820;2023-02-15T01:12:24;101896.34;;;3.35;63.27
62374;BME280;48409;49.030;1.820;2023-02-15T01:14:49;101900.66;;;3.34;63.70
62374;BME280;48409;49.030;1.820;2023-02-15T01:17:14;101900.66;;;3.34;63.30
62374;BME280;48409;49.030;1.820;2023-02-15T01:19:40;101904.16;;;3.35;63.48
62374;BME280;48409;49.030;1.820;2023-02-15T01:22:05;101901.53;;;3.32;63.50
62374;BME280;48409;49.030;1.820;2023-02-15T01:24:30;101904.13;;;3.32;63.30
62374;BME280;48409;49.030;1.820;2023-02-15T01:26:55;101905.00;;;3.31;63.25
62374;BME280;48409;49.030;1.820;2023-02-15T01:29:21;101906.72;;;3.30;63.50
62374;BME280;48409;49.030;1.820;2023-02-15T01:31:46;101907.59;;;3.28;63.19
62374;BME280;48409;49.030;1.820;2023-02-15T01:34:11;101905.88;;;3.28;63.60
62374;BME280;48409;49.030;1.820;2023-02-15T01:36:36;101898.94;;;3.27;63.18
62374;BME280;48409;49.030;1.820;2023-02-15T01:39:02;101904.13;;;3.27;63.42
62374;BME280;48409;49.030;1.820;2023-02-15T01:41:27;101903.25;;;3.25;63.53
62374;BME280;48409;49.030;1.820;2023-02-15T01:43:56;101900.63;;;3.25;63.41
62374;BME280;48409;49.030;1.820;2023-02-15T01:46:23;101897.16;;;3.23;63.34
62374;BME280;48409;49.030;1.820;2023-02-15T01:49:08;101901.50;;;3.22;63.23
62374;BME280;48409;49.030;1.820;2023-02-15T01:51:36;101903.25;;;3.20;63.41
62374;BME280;48409;49.030;1.820;2023-02-15T01:54:11;101896.28;;;3.18;63.49
62374;BME280;48409;49.030;1.820;2023-02-15T01:56:40;101899.75;;;3.18;63.42
62374;BME280;48409;49.030;1.820;2023-02-15T01:59:07;101894.53;;;3.15;63.41
62374;BME280;48409;49.030;1.820;2023-02-15T02:01:33;101887.56;;;3.14;63.56
62374;BME280;48409;49.030;1.820;2023-02-15T02:06:33;101883.22;;;3.11;63.57
62374;BME280;48409;49.030;1.820;2023-02-15T02:09:00;101889.31;;;3.12;63.53
62374;BME280;48409;49.030;1.820;2023-02-15T02:11:26;101876.25;;;3.07;63.56
62374;BME280;48409;49.030;1.820;2023-02-15T02:13:51;101880.59;;;3.08;63.46
62374;BME280;48409;49.030;1.820;2023-02-15T02:24:03;101878.00;;;3.05;63.42
62374;BME280;48409;49.030;1.820;2023-02-15T02:37:38;101861.50;;;3.00;63.31
62374;BME280;48409;49.030;1.820;2023-02-15T02:40:13;101863.22;;;2.99;63.43
62374;BME280;48409;49.030;1.820;2023-02-15T02:42:44;101853.69;;;2.98;63.48
62374;BME280;48409;49.030;1.820;2023-02-15T02:45:34;101855.41;;;2.98;63.40
62374;BME280;48409;49.030;1.820;2023-02-15T02:48:03;101851.06;;;2.97;63.32
62374;BME280;48409;49.030;1.820;2023-02-15T02:50:31;101848.44;;;2.95;63.27
62374;BME280;48409;49.030;1.820;2023-02-15T02:52:57;101851.94;;;2.96;63.48
62374;BME280;48409;49.030;1.820;2023-02-15T02:57:55;101846.72;;;2.93;63.34
62374;BME280;48409;49.030;1.820;2023-02-15T03:00:22;101851.03;;;2.94;63.37
62374;BME280;48409;49.030;1.820;2023-02-15T03:02:50;101850.19;;;2.92;63.40
62374;BME280;48409;49.030;1.820;2023-02-15T03:05:20;101846.69;;;2.90;63.40
62374;BME280;48409;49.030;1.820;2023-02-15T03:07:47;101850.16;;;2.89;63.47
62374;BME280;48409;49.030;1.820;2023-02-15T03:10:14;101858.84;;;2.89;63.40
62374;BME280;48409;49.030;1.820;2023-02-15T03:12:39;101848.41;;;2.86;63.33
62374;BME280;48409;49.030;1.820;2023-02-15T03:17:35;101855.31;;;2.84;63.38
62374;BME280;48409;49.030;1.820;2023-02-15T03:20:06;101850.13;;;2.82;63.41
62374;BME280;48409;49.030;1.820;2023-02-15T03:22:37;101856.19;;;2.83;63.40
62374;BME280;48409;49.030;1.820;2023-02-15T03:25:11;101849.25;;;2.80;63.43
62374;BME280;48409;49.030;1.820;2023-02-15T03:27:42;101847.50;;;2.79;63.34
62374;BME280;48409;49.030;1.820;2023-02-15T03:30:10;101851.00;;;2.80;63.27
62374;BME280;48409;49.030;1.820;2023-02-15T03:32:36;101844.91;;;2.79;63.50
62374;BME280;48409;49.030;1.820;2023-02-15T03:35:03;101841.41;;;2.77;63.48
62374;BME280;48409;49.030;1.820;2023-02-15T03:37:48;101838.81;;;2.77;63.16
62374;BME280;48409;49.030;1.820;2023-02-15T03:40:34;101839.69;;;2.76;63.33
62374;BME280;48409;49.030;1.820;2023-02-15T03:45:49;101837.91;;;2.72;63.25
62374;BME280;48409;49.030;1.820;2023-02-15T03:48:33;101839.69;;;2.73;63.38
62374;BME280;48409;49.030;1.820;2023-02-15T03:51:00;101844.00;;;2.72;63.32
62374;BME280;48409;49.030;1.820;2023-02-15T03:53:46;101845.72;;;2.72;63.52
62374;BME280;48409;49.030;1.820;2023-02-15T03:56:13;101839.66;;;2.70;63.22
62374;BME280;48409;49.030;1.820;2023-02-15T03:58:38;101841.41;;;2.71;63.29
62374;BME280;48409;49.030;1.820;2023-02-15T04:01:26;101846.59;;;2.71;63.23
62374;BME280;48409;49.030;1.820;2023-02-15T04:04:20;101844.88;;;2.70;63.24
62374;BME280;48409;49.030;1.820;2023-02-15T04:06:47;101841.38;;;2.68;63.19
62374;BME280;48409;49.030;1.820;2023-02-15T04:09:12;101833.59;;;2.66;63.48
62374;BME280;48409;49.030;1.820;2023-02-15T04:11:56;101844.00;;;2.66;63.22
62374;BME280;48409;49.030;1.820;2023-02-15T04:14:22;101837.00;;;2.64;63.15
62374;BME280;48409;49.030;1.820;2023-02-15T04:17:06;101837.88;;;2.63;63.37
62374;BME280;48409;49.030;1.820;2023-02-15T04:19:32;101832.66;;;2.63;63.44
62374;BME280;48409;49.030;1.820;2023-02-15T04:22:16;101836.16;;;2.61;63.23
62374;BME280;48409;49.030;1.820;2023-02-15T04:25:00;101829.22;;;2.60;63.45
62374;BME280;48409;49.030;1.820;2023-02-15T04:27:34;101822.25;;;2.59;63.32
62374;BME280;48409;49.030;1.820;2023-02-15T04:29:59;101825.72;;;2.58;63.40
62374;BME280;48409;49.030;1.820;2023-02-15T04:32:24;101827.47;;;2.58;63.34
62374;BME280;48409;49.030;1.820;2023-02-15T04:34:50;101821.38;;;2.57;63.45
62374;BME280;48409;49.030;1.820;2023-02-15T04:37:15;101822.25;;;2.58;63.51
62374;BME280;48409;49.030;1.820;2023-02-15T04:39:40;101824.84;;;2.58;63.23
62374;BME280;48409;49.030;1.820;2023-02-15T04:42:06;101817.03;;;2.56;63.12
62374;BME280;48409;49.030;1.820;2023-02-15T04:44:31;101820.50;;;2.55;63.35
62374;BME280;48409;49.030;1.820;2023-02-15T04:46:56;101820.50;;;2.55;63.10
62374;BME280;48409;49.030;1.820;2023-02-15T04:49:21;101821.34;;;2.54;63.53
62374;BME280;48409;49.030;1.820;2023-02-15T04:51:47;101821.34;;;2.53;63.26
62374;BME280;48409;49.030;1.820;2023-02-15T04:54:12;101827.41;;;2.53;63.16
62374;BME280;48409;49.030;1.820;2023-02-15T04:56:37;101823.94;;;2.53;63.14
62374;BME280;48409;49.030;1.820;2023-02-15T04:59:03;101825.69;;;2.52;63.15
62374;BME280;48409;49.030;1.820;2023-02-15T05:01:29;101819.59;;;2.52;63.28
62374;BME280;48409;49.030;1.820;2023-02-15T05:03:54;101814.41;;;2.52;63.25
62374;BME280;48409;49.030;1.820;2023-02-15T05:06:20;101817.00;;;2.50;63.06
62374;BME280;48409;49.030;1.820;2023-02-15T05:08:45;101817.00;;;2.50;63.20
62374;BME280;48409;49.030;1.820;2023-02-15T05:11:10;101818.72;;;2.48;63.14
62374;BME280;48409;49.030;1.820;2023-02-15T05:13:35;101808.31;;;2.46;63.27
62374;BME280;48409;49.030;1.820;2023-02-15T05:16:01;101801.38;;;2.47;63.18
62374;BME280;48409;49.030;1.820;2023-02-15T05:18:26;101799.63;;;2.46;63.24
62374;BME280;48409;49.030;1.820;2023-02-15T05:20:51;101800.50;;;2.45;63.12
62374;BME280;48409;49.030;1.820;2023-02-15T05:23:16;101800.50;;;2.45;63.32
62374;BME280;48409;49.030;1.820;2023-02-15T05:25:45;101802.22;;;2.43;63.09
62374;BME280;48409;49.030;1.820;2023-02-15T05:28:29;101801.34;;;2.41;63.04
62374;BME280;48409;49.030;1.820;2023-02-15T05:31:12;101795.28;;;2.40;63.38
62374;BME280;48409;49.030;1.820;2023-02-15T05:33:38;101798.72;;;2.39;63.39
62374;BME280;48409;49.030;1.820;2023-02-15T05:36:03;101797.00;;;2.38;63.21
62374;BME280;48409;49.030;1.820;2023-02-15T05:38:29;101799.56;;;2.37;63.19
62374;BME280;48409;49.030;1.820;2023-02-15T05:40:55;101807.38;;;2.35;63.04
62374;BME280;48409;49.030;1.820;2023-02-15T05:43:20;101805.63;;;2.34;63.18
62374;BME280;48409;49.030;1.820;2023-02-15T05:45:49;101797.81;;;2.32;63.11
62374;BME280;48409;49.030;1.820;2023-02-15T05:48:15;101787.41;;;2.29;63.22
62374;BME280;48409;49.030;1.820;2023-02-15T05:50:40;101794.34;;;2.30;63.30
62374;BME280;48409;49.030;1.820;2023-02-15T05:53:06;101781.34;;;2.29;63.26
62374;BME280;48409;49.030;1.820;2023-02-15T05:55:31;101785.66;;;2.28;63.07
62374;BME280;48409;49.030;1.820;2023-02-15T05:57:56;101783.06;;;2.28;63.32
62374;BME280;48409;49.030;1.820;2023-02-15T06:00:22;101794.31;;;2.27;63.23
62374;BME280;48409;49.030;1.820;2023-02-15T06:02:47;101785.66;;;2.28;63.13
62374;BME280;48409;49.030;1.820;2023-02-15T06:05:12;101787.41;;;2.28;63.28
62374;BME280;48409;49.030;1.820;2023-02-15T06:07:37;101789.13;;;2.27;63.39
62374;BME280;48409;49.030;1.820;2023-02-15T06:10:03;101805.59;;;2.26;63.24
62374;BME280;48409;49.030;1.820;2023-02-15T06:12:28;101812.53;;;2.27;62.93
62374;BME280;48409;49.030;1.820;2023-02-15T06:14:54;101809.94;;;2.27;63.26
62374;BME280;48409;49.030;1.820;2023-02-15T06:17:19;101808.19;;;2.26;63.16
62374;BME280;48409;49.030;1.820;2023-02-15T06:19:46;101812.53;;;2.27;63.14
62374;BME280;48409;49.030;1.820;2023-02-15T06:22:11;101814.25;;;2.28;63.36
62374;BME280;48409;49.030;1.820;2023-02-15T06:24:38;101807.31;;;2.27;63.38
62374;BME280;48409;49.030;1.820;2023-02-15T06:27:04;101812.53;;;2.29;63.26
62374;BME280;48409;49.030;1.820;2023-02-15T06:29:29;101810.81;;;2.29;63.11
62374;BME280;48409;49.030;1.820;2023-02-15T06:31:54;101818.63;;;2.29;63.23
62374;BME280;48409;49.030;1.820;2023-02-15T06:34:20;101816.03;;;2.29;63.23
62374;BME280;48409;49.030;1.820;2023-02-15T06:36:45;101817.75;;;2.29;63.27
62374;BME280;48409;49.030;1.820;2023-02-15T06:39:10;101820.34;;;2.30;63.19
62374;BME280;48409;49.030;1.820;2023-02-15T06:41:35;101823.81;;;2.29;63.17
62374;BME280;48409;49.030;1.820;2023-02-15T06:44:00;101820.34;;;2.30;63.33
62374;BME280;48409;49.030;1.820;2023-02-15T06:46:26;101828.16;;;2.30;63.15
62374;BME280;48409;49.030;1.820;2023-02-15T06:48:51;101826.44;;;2.31;63.23
62374;BME280;48409;49.030;1.820;2023-02-15T06:51:16;101822.09;;;2.31;63.13
62374;BME280;48409;49.030;1.820;2023-02-15T06:53:41;101820.34;;;2.30;63.18
62374;BME280;48409;49.030;1.820;2023-02-15T06:56:08;101828.16;;;2.32;63.27
62374;BME280;48409;49.030;1.820;2023-02-15T06:58:34;101835.09;;;2.31;63.11
62374;BME280;48409;49.030;1.820;2023-02-15T07:01:00;101831.63;;;2.31;63.19
62374;BME280;48409;49.030;1.820;2023-02-15T07:03:25;101836.81;;;2.29;63.15
62374;BME280;48409;49.030;1.820;2023-02-15T07:05:54;101836.84;;;2.31;63.57
62374;BME280;48409;49.030;1.820;2023-02-15T07:08:19;101837.69;;;2.31;63.21
62374;BME280;48409;49.030;1.820;2023-02-15T07:10:45;101840.28;;;2.31;63.34
62374;BME280;48409;49.030;1.820;2023-02-15T07:13:10;101837.69;;;2.31;63.43
62374;BME280;48409;49.030;1.820;2023-02-15T07:15:35;101840.31;;;2.33;63.29
62374;BME280;48409;49.030;1.820;2023-02-15T07:18:01;101837.69;;;2.33;63.15
62374;BME280;48409;49.030;1.820;2023-02-15T07:20:26;101834.22;;;2.32;63.27
62374;BME280;48409;49.030;1.820;2023-02-15T07:22:51;101843.78;;;2.33;63.43
62374;BME280;48409;49.030;1.820;2023-02-15T07:25:17;101846.38;;;2.33;63.28
62374;BME280;48409;49.030;1.820;2023-02-15T07:27:42;101846.38;;;2.35;63.31
62374;BME280;48409;49.030;1.820;2023-02-15T07:30:11;101843.78;;;2.35;63.32
62374;BME280;48409;49.030;1.820;2023-02-15T07:32:37;101855.06;;;2.35;63.38
62374;BME280;48409;49.030;1.820;2023-02-15T07:35:22;101851.59;;;2.37;63.38
62374;BME280;48409;49.030;1.820;2023-02-15T07:37:47;101846.38;;;2.37;63.47
62374;BME280;48409;49.030;1.820;2023-02-15T07:40:12;101848.16;;;2.38;63.28
62374;BME280;48409;49.030;1.820;2023-02-15T07:42:38;101855.09;;;2.39;63.21
62374;BME280;48409;49.030;1.820;2023-02-15T07:45:03;101851.63;;;2.40;63.44
62374;BME280;48409;49.030;1.820;2023-02-15T07:47:28;101859.41;;;2.40;63.32
62374;BME280;48409;49.030;1.820;2023-02-15T07:49:54;101858.56;;;2.41;63.40
62374;BME280;48409;49.030;1.820;2023-02-15T07:52:21;101860.28;;;2.42;63.26
62374;BME280;48409;49.030;1.820;2023-02-15T07:54:47;101862.91;;;2.43;63.33
62374;BME280;48409;49.030;1.820;2023-02-15T07:57:12;101853.38;;;2.44;63.59
62374;BME280;48409;49.030;1.820;2023-02-15T07:59:37;101849.91;;;2.45;63.51
62374;BME280;48409;49.030;1.820;2023-02-15T08:02:02;101859.44;;;2.46;63.33
62374;BME280;48409;49.030;1.820;2023-02-15T08:04:30;101853.41;;;2.47;63.45
62374;BME280;48409;49.030;1.820;2023-02-15T08:06:56;101862.94;;;2.48;63.56
62374;BME280;48409;49.030;1.820;2023-02-15T08:09:21;101856.88;;;2.49;63.58
62374;BME280;48409;49.030;1.820;2023-02-15T08:11:47;101858.59;;;2.50;63.40
62374;BME280;48409;49.030;1.820;2023-02-15T08:14:16;101865.56;;;2.51;63.40
62374;BME280;48409;49.030;1.820;2023-02-15T08:19:17;101867.31;;;2.52;63.36
62374;BME280;48409;49.030;1.820;2023-02-15T08:21:44;101867.31;;;2.52;63.56
62374;BME280;48409;49.030;1.820;2023-02-15T08:24:10;101860.38;;;2.54;63.45
62374;BME280;48409;49.030;1.820;2023-02-15T08:26:36;101856.06;;;2.55;63.42
62374;BME280;48409;49.030;1.820;2023-02-15T08:29:04;101856.94;;;2.55;63.48
62374;BME280;48409;49.030;1.820;2023-02-15T08:31:29;101855.19;;;2.57;63.41
62374;BME280;48409;49.030;1.820;2023-02-15T08:33:55;101852.59;;;2.59;63.64
62374;BME280;48409;49.030;1.820;2023-02-15T08:36:21;101856.94;;;2.58;63.34
62374;BME280;48409;49.030;1.820;2023-02-15T08:38:47;101857.81;;;2.60;63.60
62374;BME280;48409;49.030;1.820;2023-02-15T08:41:22;101855.22;;;2.60;63.46
62374;BME280;48409;49.030;1.820;2023-02-15T08:43:49;101858.69;;;2.63;63.46
62374;BME280;48409;49.030;1.820;2023-02-15T08:46:16;101861.31;;;2.64;63.68
62374;BME280;48409;49.030;1.820;2023-02-15T08:48:41;101860.44;;;2.67;63.57
62374;BME280;48409;49.030;1.820;2023-02-15T08:51:08;101848.34;;;2.69;63.46
62374;BME280;48409;49.030;1.820;2023-02-15T08:53:35;101857.00;;;2.71;63.51
62374;BME280;48409;49.030;1.820;2023-02-15T08:56:00;101853.53;;;2.72;63.63
62374;BME280;48409;49.030;1.820;2023-02-15T08:58:26;101857.03;;;2.74;63.79
62374;BME280;48409;49.030;1.820;2023-02-15T09:00:51;101854.41;;;2.77;63.62
62374;BME280;48409;49.030;1.820;2023-02-15T09:03:16;101865.72;;;2.79;63.60
62374;BME280;48409;49.030;1.820;2023-02-15T09:05:42;101865.75;;;2.82;63.58
62374;BME280;48409;49.030;1.820;2023-02-15T09:08:07;101860.53;;;2.85;63.79
62374;BME280;48409;49.030;1.820;2023-02-15T09:10:33;101856.22;;;2.87;64.00
62374;BME280;48409;49.030;1.820;2023-02-15T09:12:58;101857.09;;;2.90;63.85
62374;BME280;48409;49.030;1.820;2023-02-15T09:15:23;101854.53;;;2.94;63.93
62374;BME280;48409;49.030;1.820;2023-02-15T09:17:48;101856.25;;;2.95;63.76
62374;BME280;48409;49.030;1.820;2023-02-15T09:20:14;101849.31;;;2.99;64.01
62374;BME280;48409;49.030;1.820;2023-02-15T09:22:39;101851.06;;;3.03;63.89
62374;BME280;48409;49.030;1.820;2023-02-15T09:25:04;101858.03;;;3.07;64.08
62374;BME280;48409;49.030;1.820;2023-02-15T09:27:30;101863.28;;;3.10;64.10
62374;BME280;48409;49.030;1.820;2023-02-15T09:29:55;101866.75;;;3.14;64.21
62374;BME280;48409;49.030;1.820;2023-02-15T09:32:20;101871.09;;;3.20;64.34
62374;BME280;48409;49.030;1.820;2023-02-15T09:34:47;101871.13;;;3.23;64.21
62374;BME280;48409;49.030;1.820;2023-02-15T09:37:12;101879.81;;;3.28;64.35
62374;BME280;48409;49.030;1.820;2023-02-15T09:39:37;101872.03;;;3.33;64.37
62374;BME280;48409;49.030;1.820;2023-02-15T10:00:58;101866.91;;;3.75;64.53
62374;BME280;48409;49.030;1.820;2023-02-15T10:06:08;101867.78;;;3.86;64.61
62374;BME280;48409;49.030;1.820;2023-02-15T10:08:40;101864.31;;;3.94;64.73
62374;BME280;48409;49.030;1.820;2023-02-15T10:24:44;101862.56;;;4.35;65.18
62374;BME280;48409;49.030;1.820;2023-02-15T10:27:13;101858.19;;;4.43;65.18
62374;BME280;48409;49.030;1.820;2023-02-15T10:29:39;101852.09;;;4.52;65.28
62374;BME280;48409;49.030;1.820;2023-02-15T10:32:22;101852.09;;;4.58;65.15
62374;BME280;48409;49.030;1.820;2023-02-15T10:34:52;101853.81;;;4.68;65.67
62374;BME280;48409;49.030;1.820;2023-02-15T10:37:32;101860.75;;;4.79;65.82
62374;BME280;48409;49.030;1.820;2023-02-15T10:45:13;101851.00;;;5.15;66.21
62374;BME280;48409;49.030;1.820;2023-02-15T11:00:30;101869.66;;;6.01;66.94
62374;BME280;48409;49.030;1.820;2023-02-15T11:08:22;101853.44;;;6.59;67.42
62374;BME280;48409;49.030;1.820;2023-02-15T11:11:05;101859.34;;;6.78;67.28
62374;BME280;48409;49.030;1.820;2023-02-15T11:13:33;101857.38;;;6.99;67.70
62374;BME280;48409;49.030;1.820;2023-02-15T11:16:04;101858.03;;;7.17;67.60
62374;BME280;48409;49.030;1.820;2023-02-15T11:23:29;101852.97;;;7.66;67.60
62374;BME280;48409;49.030;1.820;2023-02-15T11:26:00;101857.13;;;7.79;67.55
62374;BME280;48409;49.030;1.820;2023-02-15T11:28:31;101859.53;;;7.93;67.54
62374;BME280;48409;49.030;1.820;2023-02-15T11:31:00;101853.25;;;8.04;67.28
62374;BME280;48409;49.030;1.820;2023-02-15T11:33:27;101854.78;;;8.16;67.28
62374;BME280;48409;49.030;1.820;2023-02-15T11:35:59;101851.09;;;8.26;67.26
62374;BME280;48409;49.030;1.820;2023-02-15T11:38:27;101853.56;;;8.35;67.13
62374;BME280;48409;49.030;1.820;2023-02-15T11:40:57;101849.91;;;8.46;67.31
62374;BME280;48409;49.030;1.820;2023-02-15T11:43:29;101850.69;;;8.53;67.23
62374;BME280;48409;49.030;1.820;2023-02-15T11:45:56;101847.00;;;8.61;67.00
62374;BME280;48409;49.030;1.820;2023-02-15T11:48:21;101846.84;;;8.69;67.11
62374;BME280;48409;49.030;1.820;2023-02-15T11:50:47;101842.31;;;8.76;67.19
62374;BME280;48409;49.030;1.820;2023-02-15T11:53:14;101849.19;;;8.83;67.04
62374;BME280;48409;49.030;1.820;2023-02-15T11:56:13;101840.34;;;8.89;67.06
62374;BME280;48409;49.030;1.820;2023-02-15T11:58:48;101838.44;;;8.96;66.95
62374;BME280;48409;49.030;1.820;2023-02-15T12:01:32;101847.06;;;9.03;66.88
62374;BME280;48409;49.030;1.820;2023-02-15T12:08:54;101831.84;;;9.17;66.53
62374;BME280;48409;49.030;1.820;2023-02-15T12:11:23;101841.38;;;9.23;66.70
62374;BME280;48409;49.030;1.820;2023-02-15T12:13:59;101832.53;;;9.27;66.64
62374;BME280;48409;49.030;1.820;2023-02-15T12:16:25;101835.91;;;9.32;66.64
62374;BME280;48409;49.030;1.820;2023-02-15T12:18:52;101828.78;;;9.37;66.53
62374;BME280;48409;49.030;1.820;2023-02-15T12:21:26;101832.16;;;9.43;66.62
62374;BME280;48409;49.030;1.820;2023-02-15T12:23:54;101824.16;;;9.49;66.57
62374;BME280;48409;49.030;1.820;2023-02-15T12:26:24;101830.16;;;9.54;66.66
62374;BME280;48409;49.030;1.820;2023-02-15T12:28:50;101828.28;;;9.59;66.53
62374;BME280;48409;49.030;1.820;2023-02-15T12:33:46;101821.84;;;9.71;66.47
62374;BME280;48409;49.030;1.820;2023-02-15T12:36:21;101825.28;;;9.75;66.60
62374;BME280;48409;49.030;1.820;2023-02-15T12:41:49;101815.28;;;9.89;66.62
62374;BME280;48409;49.030;1.820;2023-02-15T12:44:25;101816.91;;;9.95;66.70
62374;BME280;48409;49.030;1.820;2023-02-15T12:49:29;101812.19;;;10.06;66.61
62374;BME280;48409;49.030;1.820;2023-02-15T12:51:56;101812.91;;;10.13;66.65
62374;BME280;48409;49.030;1.820;2023-02-15T12:56:47;101810.88;;;10.25;66.43
62374;BME280;48409;49.030;1.820;2023-02-15T12:59:13;101801.06;;;10.30;66.58
62374;BME280;48409;49.030;1.820;2023-02-15T13:01:39;101798.28;;;10.36;66.44
62374;BME280;48409;49.030;1.820;2023-02-15T13:04:14;101799.00;;;10.41;66.59
62374;BME280;48409;49.030;1.820;2023-02-15T13:06:46;101803.22;;;10.49;66.51
62374;BME280;48409;49.030;1.820;2023-02-15T13:09:17;101798.63;;;10.55;66.44
62374;BME280;48409;49.030;1.820;2023-02-15T13:11:43;101802.88;;;10.61;66.35
62374;BME280;48409;49.030;1.820;2023-02-15T13:14:26;101797.44;;;10.67;66.53
62374;BME280;48409;49.030;1.820;2023-02-15T13:16:55;101795.50;;;10.74;66.38
62374;BME280;48409;49.030;1.820;2023-02-15T13:21:56;101797.00;;;10.83;66.33
62374;BME280;48409;49.030;1.820;2023-02-15T13:24:24;101798.63;;;10.87;66.43
62374;BME280;48409;49.030;1.820;2023-02-15T13:26:50;101786.28;;;10.89;66.31
62374;BME280;48409;49.030;1.820;2023-02-15T13:29:18;101784.38;;;10.94;66.19
62374;BME280;48409;49.030;1.820;2023-02-15T13:31:46;101782.47;;;10.98;66.27
62374;BME280;48409;49.030;1.820;2023-02-15T13:34:14;101776.25;;;11.01;66.29
62374;BME280;48409;49.030;1.820;2023-02-15T13:36:50;101769.97;;;11.05;66.15
62374;BME280;48409;49.030;1.820;2023-02-15T13:39:41;101775.16;;;11.08;66.12
62374;BME280;48409;49.030;1.820;2023-02-15T13:42:21;101774.13;;;11.14;66.05
62374;BME280;48409;49.030;1.820;2023-02-15T13:45:02;101771.31;;;11.18;66.13
62374;BME280;48409;49.030;1.820;2023-02-15T13:52:54;101776.22;;;11.31;66.19
62374;BME280;48409;49.030;1.820;2023-02-15T14:05:49;101763.25;;;11.52;65.99
62374;BME280;48409;49.030;1.820;2023-02-15T14:08:23;101754.31;;;11.56;65.88
62374;BME280;48409;49.030;1.820;2023-02-15T14:11:02;101755.91;;;11.60;66.08
62374;BME280;48409;49.030;1.820;2023-02-15T14:16:20;101755.72;;;11.66;65.98
62374;BME280;48409;49.030;1.820;2023-02-15T14:18:55;101749.47;;;11.69;65.92
62374;BME280;48409;49.030;1.820;2023-02-15T14:21:30;101748.41;;;11.74;65.97
62374;BME280;48409;49.030;1.820;2023-02-15T14:24:00;101752.69;;;11.79;65.95
62374;BME280;48409;49.030;1.820;2023-02-15T14:29:15;101743.75;;;11.83;65.86
62374;BME280;48409;49.030;1.820;2023-02-15T14:31:46;101751.53;;;11.86;65.82
62374;BME280;48409;49.030;1.820;2023-02-15T14:34:20;101748.78;;;11.89;65.66
62374;BME280;48409;49.030;1.820;2023-02-15T14:36:47;101742.59;;;11.90;65.63
62374;BME280;48409;49.030;1.820;2023-02-15T14:42:12;101748.56;;;11.95;65.62
62374;BME280;48409;49.030;1.820;2023-02-15T14:44:46;101745.94;;;11.95;65.58
62374;BME280;48409;49.030;1.820;2023-02-15T14:47:15;101740.53;;;11.98;65.56
62374;BME280;48409;49.030;1.820;2023-02-15T14:49:44;101747.53;;;11.99;65.41
62374;BME280;48409;49.030;1.820;2023-02-15T14:52:09;101744.00;;;12.00;65.51
62374;BME280;48409;49.030;1.820;2023-02-15T14:59:29;101743.88;;;12.04;65.35
62374;BME280;48409;49.030;1.820;2023-02-15T15:04:30;101740.44;;;12.01;65.25
62374;BME280;48409;49.030;1.820;2023-02-15T15:06:59;101737.81;;;12.01;65.13
62374;BME280;48409;49.030;1.820;2023-02-15T15:09:25;101733.44;;;12.00;65.14
62374;BME280;48409;49.030;1.820;2023-02-15T15:11:52;101729.94;;;12.00;65.01
62374;BME280;48409;49.030;1.820;2023-02-15T15:14:40;101732.53;;;12.01;65.03
62374;BME280;48409;49.030;1.820;2023-02-15T15:17:04;101730.00;;;11.98;64.93
62374;BME280;48409;49.030;1.820;2023-02-15T15:22:18;101721.28;;;11.96;65.07
62374;BME280;48409;49.030;1.820;2023-02-15T15:29:52;101716.25;;;11.88;64.70
62374;BME280;48409;49.030;1.820;2023-02-15T15:32:19;101712.84;;;11.85;64.70
62374;BME280;48409;49.030;1.820;2023-02-15T15:34:56;101721.69;;;11.84;64.68
62374;BME280;48409;49.030;1.820;2023-02-15T15:37:46;101714.81;;;11.80;64.66